Time;durP1;ratioP1;P1;durP2;ratioP2;P2;SDS_P1;SDS_P2;PMS_P1;PMS_P2;Temp;Humidity;BMP_temperature;BMP_pressure;BME280_temperature;BME280_humidity;BME280_pressure;Samples;Min_cycle;Max_cycle;Signal;HPM_P1;HPM_P2
2023/04/07 00:01:38;;;;;;;13.50;5.10;;;;;;;4.28;77.20;100884.15;217603;1291;139331;-88
2023/04/07 00:06:39;;;;;;;15.30;6.10;;;;;;;4.22;77.67;100878.84;218098;1291;138793;-90
2023/04/07 00:11:40;;;;;;;15.50;6.60;;;;;;;4.15;78.31;100873.64;217543;1290;138980;-89
2023/04/07 00:16:40;;;;;;;15.50;6.10;;;;;;;4.07;78.89;100879.14;218184;1291;95045;-89
2023/04/07 00:21:41;;;;;;;13.10;5.60;;;;;;;3.99;80.08;100875.91;217601;1291;138887;-89
2023/04/07 00:26:41;;;;;;;13.90;6.40;;;;;;;3.86;80.62;100869.71;218102;1291;138573;-89
2023/04/07 00:31:42;;;;;;;14.30;6.30;;;;;;;3.79;80.95;100864.71;217753;1291;138847;-88
2023/04/07 00:36:42;;;;;;;16.30;6.10;;;;;;;3.75;81.93;100870.55;218028;1291;138650;-89
2023/04/07 00:41:43;;;;;;;13.70;5.90;;;;;;;3.67;83.29;100874.90;217532;1291;138601;-89
2023/04/07 00:46:46;;;;;;;14.20;6.40;;;;;;;3.57;84.51;100867.60;218231;1291;94908;-90
2023/04/07 00:51:46;;;;;;;11.80;5.70;;;;;;;3.52;85.06;100864.66;217614;1291;138422;-89
2023/04/07 00:56:47;;;;;;;13.60;6.40;;;;;;;3.55;84.77;100854.83;218047;1292;138736;-88
2023/04/07 01:01:57;;;;;;;13.00;5.30;;;;;;;3.59;84.51;100850.44;217596;1292;139130;-88
2023/04/07 01:07:04;;;;;;;14.50;5.90;;;;;;;3.64;84.84;100849.10;218055;1292;138145;-88
2023/04/07 01:12:14;;;;;;;10.80;5.10;;;;;;;3.65;85.03;100848.78;217516;1291;138870;-87
2023/04/07 01:17:16;;;;;;;13.90;5.40;;;;;;;3.64;85.35;100836.67;218114;1292;105607;-88
2023/04/07 01:22:24;;;;;;;12.80;5.20;;;;;;;3.63;85.64;100832.67;217596;1291;138348;-89
2023/04/07 01:27:37;;;;;;;13.30;4.70;;;;;;;3.62;86.27;100828.16;218104;1291;138082;-89
2023/04/07 01:32:40;;;;;;;11.50;5.10;;;;;;;3.62;86.04;100824.52;217438;1291;138606;-89
2023/04/07 01:37:42;;;;;;;11.50;4.80;;;;;;;3.60;86.29;100817.05;218118;1291;138761;-88
2023/04/07 01:42:44;;;;;;;12.30;5.30;;;;;;;3.59;86.36;100813.91;217496;1291;139064;-90
2023/04/07 01:47:45;;;;;;;11.50;5.00;;;;;;;3.59;86.73;100808.14;218092;1291;138322;-89
2023/04/07 01:52:46;;;;;;;12.60;5.30;;;;;;;3.58;86.79;100803.21;217690;1291;138059;-90
2023/04/07 01:57:47;;;;;;;11.10;4.60;;;;;;;3.59;87.07;100804.97;218136;1291;138455;-90
2023/04/07 02:02:50;;;;;;;13.60;5.70;;;;;;;3.59;87.22;100800.58;217571;1291;138322;-91
2023/04/07 02:07:57;;;;;;;12.50;5.40;;;;;;;3.58;87.74;100798.28;218005;1291;138191;-90
2023/04/07 02:12:59;;;;;;;12.70;6.90;;;;;;;3.57;87.68;100789.67;217463;1292;138763;-91
2023/04/07 02:18:01;;;;;;;13.00;6.00;;;;;;;3.55;88.35;100785.33;218202;1291;138174;-93
2023/04/07 02:23:02;;;;;;;10.30;5.10;;;;;;;3.52;88.51;100784.75;217589;1291;138478;-93
2023/04/07 02:28:03;;;;;;;12.60;5.70;;;;;;;3.51;88.48;100778.86;217994;1291;138931;-92
2023/04/07 02:33:04;;;;;;;15.00;5.70;;;;;;;3.51;89.05;100778.23;217530;1292;138595;-92
2023/04/07 02:38:04;;;;;;;13.20;5.50;;;;;;;3.49;89.52;100773.23;218189;1292;138379;-93
2023/04/07 02:43:05;;;;;;;11.50;5.50;;;;;;;3.47;89.64;100772.98;217616;1291;138460;-94
2023/04/07 02:48:06;;;;;;;14.40;6.10;;;;;;;3.43;90.27;100770.73;218103;1292;138125;-94
2023/04/07 02:53:06;;;;;;;13.70;5.90;;;;;;;3.42;90.72;100764.84;217832;1292;138186;-93
2023/04/07 02:58:07;;;;;;;11.70;5.70;;;;;;;3.40;90.80;100761.10;218121;1292;138215;-92
2023/04/07 03:03:07;;;;;;;11.10;5.50;;;;;;;3.40;90.78;100758.54;217640;1292;138384;-93
2023/04/07 03:08:08;;;;;;;12.30;6.20;;;;;;;3.41;90.74;100757.88;218344;1292;138141;-92
2023/04/07 03:13:08;;;;;;;12.40;6.20;;;;;;;3.41;91.47;100752.60;217801;1294;138742;-92
2023/04/07 03:18:10;;;;;;;13.90;6.80;;;;;;;3.39;91.79;100748.69;218435;1291;138133;-92
2023/04/07 03:23:11;;;;;;;13.40;6.00;;;;;;;3.37;92.06;100747.11;217980;1289;138361;-92
2023/04/07 03:28:12;;;;;;;12.40;6.10;;;;;;;3.36;92.29;100748.71;218324;1289;137918;-91
2023/04/07 03:33:12;;;;;;;12.70;6.10;;;;;;;3.36;92.44;100749.10;217778;1289;139061;-91
2023/04/07 03:38:13;;;;;;;12.90;6.60;;;;;;;3.35;92.49;100745.75;218309;1291;138274;-91
2023/04/07 03:43:14;;;;;;;16.80;7.50;;;;;;;3.36;92.79;100739.30;217812;1289;138740;-90
2023/04/07 03:48:15;;;;;;;14.30;6.90;;;;;;;3.36;93.21;100737.36;218329;1291;138311;-90
2023/04/07 03:53:15;;;;;;;14.40;7.00;;;;;;;3.34;93.46;100730.89;217905;1294;138616;-89
2023/04/07 03:58:16;;;;;;;14.40;7.30;;;;;;;3.31;93.74;100732.02;218412;1293;137830;-88
2023/04/07 04:03:16;;;;;;;15.70;7.20;;;;;;;3.28;94.43;100726.23;217856;1289;138929;-90
2023/04/07 04:08:17;;;;;;;15.90;6.60;;;;;;;3.26;94.82;100722.56;218334;1292;139103;-90
2023/04/07 04:13:17;;;;;;;15.30;7.60;;;;;;;3.24;94.85;100723.10;217855;1292;138229;-90
2023/04/07 04:18:18;;;;;;;16.70;6.60;;;;;;;3.24;95.13;100721.83;218195;1292;236693;-91
2023/04/07 04:23:18;;;;;;;13.20;6.50;;;;;;;3.24;95.22;100720.61;217901;1289;138424;-90
2023/04/07 04:28:19;;;;;;;12.70;7.10;;;;;;;3.24;95.35;100719.86;218362;1292;137717;-89
2023/04/07 04:33:20;;;;;;;14.80;7.80;;;;;;;3.23;95.69;100722.39;217839;1289;139001;-90
2023/04/07 04:38:20;;;;;;;15.10;7.20;;;;;;;3.22;95.95;100721.83;218333;1288;138136;-90
2023/04/07 04:43:21;;;;;;;19.70;8.20;;;;;;;3.21;96.14;100719.29;217709;1288;138898;-90
2023/04/07 04:48:21;;;;;;;12.80;6.90;;;;;;;3.23;96.36;100719.98;218323;1292;138144;-89
2023/04/07 04:53:22;;;;;;;13.10;6.70;;;;;;;3.24;96.33;100728.06;217958;1289;138340;-89
2023/04/07 04:58:22;;;;;;;15.80;7.80;;;;;;;3.25;96.74;100729.23;218380;1289;137923;-89
2023/04/07 05:03:25;;;;;;;15.60;7.60;;;;;;;3.27;96.78;100726.23;217828;1289;138483;-89
2023/04/07 05:08:26;;;;;;;13.40;7.00;;;;;;;3.29;97.02;100726.65;218367;1293;138433;-89
2023/04/07 05:13:26;;;;;;;14.30;7.30;;;;;;;3.24;97.56;100721.69;217780;1289;138659;-90
2023/04/07 05:18:26;;;;;;;13.80;7.10;;;;;;;3.27;97.83;100725.75;218331;1288;139793;-89
2023/04/07 05:23:27;;;;;;;12.40;6.80;;;;;;;3.28;98.03;100729.85;217521;1289;139273;-89
2023/04/07 05:28:27;;;;;;;12.40;6.20;;;;;;;3.30;98.12;100727.31;218342;1292;94951;-88
2023/04/07 05:33:28;;;;;;;12.40;6.50;;;;;;;3.32;98.56;100727.91;217812;1289;138461;-88
2023/04/07 05:38:28;;;;;;;12.60;6.30;;;;;;;3.34;98.65;100726.70;218374;1290;138700;-89
2023/04/07 05:43:29;;;;;;;14.80;6.90;;;;;;;3.38;98.98;100722.86;218258;1289;138894;-86
2023/04/07 05:48:29;;;;;;;13.40;6.20;;;;;;;3.41;98.98;100726.42;218365;1289;138399;-85
2023/04/07 05:53:30;;;;;;;13.50;6.10;;;;;;;3.44;99.14;100721.86;217791;1289;141111;-86
2023/04/07 05:58:30;;;;;;;12.60;5.80;;;;;;;3.47;99.10;100723.02;218262;1289;94717;-86
2023/04/07 06:03:31;;;;;;;14.40;7.00;;;;;;;3.52;98.92;100726.88;217839;1289;138093;-85
2023/04/07 06:08:31;;;;;;;13.20;6.30;;;;;;;3.53;99.33;100727.08;218180;1289;138167;-86
2023/04/07 06:13:31;;;;;;;14.30;6.70;;;;;;;3.55;99.36;100728.43;217735;1289;139777;-84
2023/04/07 06:18:32;;;;;;;12.70;6.10;;;;;;;3.57;99.24;100732.40;218345;1289;139624;-84
2023/04/07 06:23:32;;;;;;;15.10;8.20;;;;;;;3.60;99.11;100738.05;217811;1289;138534;-84
2023/04/07 06:28:35;;;;;;;14.80;6.30;;;;;;;3.63;99.45;100736.72;218311;1289;95292;-85
2023/04/07 06:33:35;;;;;;;14.00;6.80;;;;;;;3.64;99.80;100730.11;217643;1289;138403;-84
2023/04/07 06:38:36;;;;;;;15.70;6.60;;;;;;;3.65;99.85;100730.41;218392;1289;139476;-85
2023/04/07 06:43:36;;;;;;;14.30;6.80;;;;;;;3.69;99.76;100733.37;217617;1289;138319;-85
2023/04/07 06:48:37;;;;;;;12.50;6.30;;;;;;;3.73;99.75;100732.62;218166;1289;139109;-86
2023/04/07 06:53:37;;;;;;;14.80;7.50;;;;;;;3.76;99.89;100722.95;217780;1289;138525;-84
2023/04/07 06:58:38;;;;;;;15.30;7.30;;;;;;;3.77;99.98;100715.60;218408;1291;94825;-84
2023/04/07 07:03:38;;;;;;;13.30;6.60;;;;;;;3.79;99.98;100718.52;217777;1289;138350;-84
2023/04/07 07:08:39;;;;;;;12.80;6.90;;;;;;;3.82;100.00;100716.37;218277;1289;138246;-84
2023/04/07 07:13:39;;;;;;;15.40;7.70;;;;;;;3.87;100.00;100713.88;217711;1290;139451;-84
2023/04/07 07:18:40;;;;;;;13.80;7.10;;;;;;;3.93;100.00;100718.00;218132;1289;138499;-85
2023/04/07 07:23:40;;;;;;;15.20;7.80;;;;;;;4.00;100.00;100719.05;217804;1289;140768;-85
2023/04/07 07:28:40;;;;;;;14.30;7.60;;;;;;;4.04;100.00;100721.27;218862;1288;94806;-90
2023/04/07 07:33:42;;;;;;;15.00;7.70;;;;;;;4.10;100.00;100728.60;217786;1289;138322;-91
2023/04/07 07:38:43;;;;;;;15.40;7.00;;;;;;;4.16;100.00;100727.77;218406;1291;138354;-91
2023/04/07 07:43:43;;;;;;;16.80;8.50;;;;;;;4.22;100.00;100730.79;217889;1289;138448;-88
2023/04/07 07:48:45;;;;;;;16.30;7.90;;;;;;;4.28;100.00;100735.96;218402;1289;138889;-90
2023/04/07 07:53:45;;;;;;;16.50;7.80;;;;;;;4.34;100.00;100739.63;217832;1293;138777;-89
2023/04/07 07:58:46;;;;;;;20.00;9.40;;;;;;;4.39;100.00;100735.71;217921;1290;138894;-86
2023/04/07 08:03:46;;;;;;;17.90;8.30;;;;;;;4.43;100.00;100735.02;218292;1289;138417;-88
2023/04/07 08:08:47;;;;;;;20.00;9.40;;;;;;;4.49;100.00;100732.23;217673;1290;140061;-89
2023/04/07 08:13:47;;;;;;;19.00;8.50;;;;;;;4.57;100.00;100728.42;218293;1289;139279;-87
2023/04/07 08:18:48;;;;;;;18.30;9.00;;;;;;;4.63;100.00;100731.29;217775;1289;139277;-89
2023/04/07 08:23:48;;;;;;;18.50;8.50;;;;;;;4.68;100.00;100731.98;218396;1289;138723;-89
2023/04/07 08:28:50;;;;;;;18.40;8.50;;;;;;;4.77;100.00;100732.23;217807;1291;138943;-89
2023/04/07 08:33:57;;;;;;;16.80;8.20;;;;;;;4.83;100.00;100735.12;218205;1288;138269;-89
2023/04/07 08:39:00;;;;;;;17.80;9.20;;;;;;;4.86;100.00;100738.54;217708;1290;139206;-90
2023/04/07 08:44:01;;;;;;;19.90;9.10;;;;;;;4.93;100.00;100746.09;218176;1289;138575;-88
2023/04/07 08:49:06;;;;;;;20.20;9.30;;;;;;;4.98;100.00;100751.22;217691;1289;139563;-88
2023/04/07 08:54:11;;;;;;;19.50;9.00;;;;;;;5.01;100.00;100754.30;218185;1289;140309;-88
2023/04/07 08:59:14;;;;;;;18.90;8.20;;;;;;;5.01;100.00;100754.92;217777;1289;139660;-89
2023/04/07 09:04:15;;;;;;;18.10;8.60;;;;;;;5.06;100.00;100749.20;218277;1291;138886;-89
2023/04/07 09:09:16;;;;;;;16.10;8.90;;;;;;;5.13;100.00;100748.13;217752;1289;139703;-89
2023/04/07 09:14:17;;;;;;;17.70;8.40;;;;;;;5.19;100.00;100744.84;218308;1290;138500;-88
2023/04/07 09:19:18;;;;;;;15.80;7.40;;;;;;;5.25;100.00;100744.97;217700;1289;139426;-87
2023/04/07 09:24:27;;;;;;;18.40;9.70;;;;;;;5.28;100.00;100743.64;218278;1289;138442;-88
2023/04/07 09:29:27;;;;;;;16.90;7.90;;;;;;;5.35;100.00;100747.56;217679;1289;139003;-88
2023/04/07 09:34:29;;;;;;;22.10;9.40;;;;;;;5.40;100.00;100740.80;218298;1289;94898;-86
2023/04/07 09:39:30;;;;;;;19.00;9.30;;;;;;;5.44;100.00;100739.48;217731;1289;138666;-88
2023/04/07 09:44:39;;;;;;;18.20;8.70;;;;;;;5.47;100.00;100737.55;218338;1289;138670;-89
2023/04/07 09:49:52;;;;;;;18.40;8.80;;;;;;;5.51;100.00;100738.70;217662;1289;139711;-88
2023/04/07 09:54:54;;;;;;;16.20;7.80;;;;;;;5.56;100.00;100732.95;217974;1293;139108;-89
2023/04/07 09:59:56;;;;;;;18.00;8.20;;;;;;;5.61;100.00;100726.89;217605;1290;139938;-88
2023/04/07 10:04:58;;;;;;;18.50;8.80;;;;;;;5.71;100.00;100725.31;218288;1289;96201;-88
2023/04/07 10:09:58;;;;;;;15.00;7.80;;;;;;;5.78;100.00;100723.44;217623;1289;139135;-88
2023/04/07 10:15:00;;;;;;;15.80;7.40;;;;;;;5.85;100.00;100721.38;218145;1289;138512;-88
2023/04/07 10:20:03;;;;;;;14.40;7.40;;;;;;;5.99;100.00;100720.37;217648;1289;139464;-88
2023/04/07 10:25:15;;;;;;;15.90;7.40;;;;;;;6.08;100.00;100718.91;218155;1289;138864;-88
2023/04/07 10:30:21;;;;;;;13.40;7.10;;;;;;;6.20;100.00;100716.94;217636;1289;138961;-89
2023/04/07 10:35:22;;;;;;;14.90;7.30;;;;;;;6.27;100.00;100710.61;218150;1289;110153;-88
2023/04/07 10:40:25;;;;;;;17.30;9.20;;;;;;;6.35;100.00;100706.19;217801;1289;139974;-89
2023/04/07 10:45:47;;;;;;;16.10;7.30;;;;;;;6.44;100.00;100708.91;218267;1289;138299;-88
2023/04/07 10:51:03;;;;;;;14.10;8.40;;;;;;;6.55;100.00;100701.35;217557;1291;138823;-87
2023/04/07 10:56:04;;;;;;;16.80;8.60;;;;;;;6.63;100.00;100700.45;218168;1293;139508;-87
2023/04/07 11:01:05;;;;;;;15.00;6.50;;;;;;;6.71;100.00;100698.27;217821;1289;139073;-87
2023/04/07 11:06:09;;;;;;;14.70;7.50;;;;;;;6.74;100.00;100703.67;218297;1289;138481;-87
2023/04/07 11:11:14;;;;;;;14.60;7.30;;;;;;;6.81;100.00;100704.84;217779;1289;139068;-86
2023/04/07 11:16:17;;;;;;;15.80;8.50;;;;;;;6.92;100.00;100704.94;218251;1290;138178;-87
2023/04/07 11:21:18;;;;;;;17.00;9.20;;;;;;;7.02;100.00;100703.35;217813;1289;139215;-87
2023/04/07 11:26:19;;;;;;;14.90;7.40;;;;;;;7.09;100.00;100704.02;218203;1289;139346;-87
2023/04/07 11:31:30;;;;;;;14.40;7.60;;;;;;;7.14;100.00;100699.48;217794;1289;139162;-87
2023/04/07 11:36:39;;;;;;;15.00;7.10;;;;;;;7.13;100.00;100702.89;218187;1289;138717;-87
2023/04/07 11:41:45;;;;;;;16.10;8.00;;;;;;;7.13;100.00;100711.13;217727;1289;138842;-87
2023/04/07 11:46:59;;;;;;;16.30;8.30;;;;;;;7.13;100.00;100709.01;218319;1290;108507;-89
2023/04/07 11:52:02;;;;;;;14.50;7.70;;;;;;;7.10;100.00;100699.29;217796;1290;139122;-88
2023/04/07 11:57:02;;;;;;;14.80;7.60;;;;;;;7.06;100.00;100688.31;218185;1289;138732;-88
2023/04/07 12:02:03;;;;;;;14.40;7.80;;;;;;;7.01;100.00;100691.84;217734;1289;138531;-88
2023/04/07 12:07:08;;;;;;;16.70;8.00;;;;;;;6.98;100.00;100690.72;218350;1288;137414;-88
2023/04/07 12:12:09;;;;;;;18.70;9.40;;;;;;;6.96;100.00;100687.45;217674;1288;138637;-88
2023/04/07 12:17:20;;;;;;;15.50;7.90;;;;;;;6.95;100.00;100684.30;218422;1289;95878;-89
2023/04/07 12:22:20;;;;;;;16.60;9.70;;;;;;;6.92;100.00;100680.16;217693;1289;138466;-89
2023/04/07 12:27:20;;;;;;;22.10;12.60;;;;;;;6.97;100.00;100681.32;218381;1290;138971;-89
2023/04/07 12:32:21;;;;;;;24.70;12.50;;;;;;;7.00;100.00;100677.83;217781;1290;139019;-88
2023/04/07 12:37:21;;;;;;;23.80;12.80;;;;;;;7.06;100.00;100682.67;218276;1289;139832;-88
2023/04/07 12:42:22;;;;;;;23.80;12.90;;;;;;;7.07;100.00;100683.57;217723;1291;139454;-88
2023/04/07 12:47:22;;;;;;;28.00;14.50;;;;;;;7.10;100.00;100690.47;218470;1289;138747;-86
2023/04/07 12:52:23;;;;;;;27.60;15.50;;;;;;;7.13;100.00;100687.95;217923;1289;138715;-89
2023/04/07 12:57:23;;;;;;;30.90;16.00;;;;;;;7.12;100.00;100682.16;218260;1289;138866;-89
2023/04/07 13:02:24;;;;;;;30.00;16.80;;;;;;;7.19;100.00;100679.07;217798;1293;139252;-88
2023/04/07 13:07:24;;;;;;;34.30;16.60;;;;;;;7.20;100.00;100678.32;218278;1289;138874;-89
2023/04/07 13:12:25;;;;;;;33.20;17.80;;;;;;;7.25;100.00;100676.27;217820;1290;140523;-88
2023/04/07 13:17:25;;;;;;;31.10;16.60;;;;;;;7.32;100.00;100680.28;218305;1291;138629;-89
2023/04/07 13:22:26;;;;;;;32.90;17.80;;;;;;;7.35;100.00;100679.74;217870;1289;138925;-88
2023/04/07 13:27:26;;;;;;;31.20;17.80;;;;;;;7.36;100.00;100678.30;218270;1289;140356;-89
2023/04/07 13:32:27;;;;;;;31.00;17.80;;;;;;;7.38;100.00;100676.02;217729;1289;139075;-88
2023/04/07 13:37:27;;;;;;;30.80;17.00;;;;;;;7.43;100.00;100675.69;218441;1289;138630;-88
2023/04/07 13:42:28;;;;;;;34.50;17.40;;;;;;;7.47;100.00;100676.18;217790;1289;138752;-87
2023/04/07 13:47:32;;;;;;;35.70;16.80;;;;;;;7.52;100.00;100672.48;218194;1289;139126;-87
2023/04/07 13:52:34;;;;;;;29.20;16.40;;;;;;;7.51;100.00;100669.26;217708;1291;138498;-87
2023/04/07 13:57:35;;;;;;;37.10;19.80;;;;;;;7.55;100.00;100672.88;218308;1291;138457;-87
2023/04/07 14:02:35;;;;;;;40.40;22.10;;;;;;;7.56;100.00;100669.39;217801;1289;139158;-87
2023/04/07 14:07:35;;;;;;;43.60;25.40;;;;;;;7.60;100.00;100665.49;218926;1286;139327;-87
2023/04/07 14:12:36;;;;;;;39.40;21.30;;;;;;;7.65;100.00;100661.26;218131;1287;139666;-87
2023/04/07 14:17:37;;;;;;;42.80;25.00;;;;;;;7.66;100.00;100662.92;218904;1286;139628;-87
2023/04/07 14:22:37;;;;;;;39.30;21.70;;;;;;;7.69;100.00;100656.80;218424;1286;139679;-87
2023/04/07 14:27:38;;;;;;;35.10;16.90;;;;;;;7.67;100.00;100657.70;218868;1287;138743;-87
2023/04/07 14:32:38;;;;;;;38.90;20.50;;;;;;;7.65;100.00;100652.18;218394;1288;139451;-87
2023/04/07 14:37:39;;;;;;;37.00;19.90;;;;;;;7.66;100.00;100651.41;218878;1288;138681;-86
2023/04/07 14:42:40;;;;;;;43.20;25.40;;;;;;;7.67;100.00;100647.62;218410;1288;138930;-87
2023/04/07 14:47:40;;;;;;;40.60;22.00;;;;;;;7.71;100.00;100649.05;218950;1288;140011;-87
2023/04/07 14:52:41;;;;;;;43.00;27.20;;;;;;;7.72;100.00;100651.95;218465;1287;139363;-87
2023/04/07 14:57:41;;;;;;;47.50;29.90;;;;;;;7.71;100.00;100654.92;218873;1287;138623;-87
2023/04/07 15:02:42;;;;;;;46.90;29.80;;;;;;;7.75;100.00;100651.25;218345;1286;139925;-87
2023/04/07 15:07:44;;;;;;;46.40;26.60;;;;;;;7.79;100.00;100654.33;218917;1287;139304;-87
2023/04/07 15:12:49;;;;;;;56.60;38.80;;;;;;;7.79;100.00;100652.00;218369;1287;139541;-87
2023/04/07 15:17:49;;;;;;;47.80;30.70;;;;;;;7.81;100.00;100652.96;218830;1288;139292;-87
2023/04/07 15:22:50;;;;;;;46.20;28.60;;;;;;;7.77;100.00;100648.34;218461;1288;139263;-87
2023/04/07 15:27:50;;;;;;;42.20;24.30;;;;;;;7.78;100.00;100648.73;218914;1288;138473;-87
2023/04/07 15:33:02;;;;;;;49.20;27.40;;;;;;;7.80;100.00;100653.35;218409;1288;138987;-87
2023/04/07 15:38:03;;;;;;;108.60;65.40;;;;;;;7.83;100.00;100655.77;218765;1288;139865;-87
2023/04/07 15:43:05;;;;;;;82.80;50.00;;;;;;;7.85;100.00;100655.65;218319;1288;139757;-88
2023/04/07 15:48:05;;;;;;;65.00;42.70;;;;;;;7.87;100.00;100652.66;218913;1288;138628;-87
2023/04/07 15:53:06;;;;;;;50.20;32.40;;;;;;;7.88;100.00;100651.75;218401;1288;139299;-87
2023/04/07 15:58:07;;;;;;;63.20;35.70;;;;;;;7.88;100.00;100645.59;218769;1288;138525;-87
2023/04/07 16:03:07;;;;;;;61.10;34.60;;;;;;;7.89;100.00;100650.67;218382;1287;138980;-87
2023/04/07 16:08:08;;;;;;;46.60;27.00;;;;;;;7.88;100.00;100651.20;218850;1288;138803;-87
2023/04/07 16:13:09;;;;;;;50.20;27.90;;;;;;;7.90;100.00;100652.11;218384;1288;139396;-87
2023/04/07 16:18:11;;;;;;;47.20;27.90;;;;;;;7.91;100.00;100654.94;218843;1287;226168;-87
2023/04/07 16:23:11;;;;;;;45.60;27.40;;;;;;;7.91;100.00;100655.89;218372;1288;138690;-87
2023/04/07 16:28:12;;;;;;;42.70;24.00;;;;;;;7.90;100.00;100662.52;218882;1286;138557;-89
2023/04/07 16:33:13;;;;;;;49.70;26.60;;;;;;;7.87;100.00;100656.04;217911;1288;139093;-88
2023/04/07 16:38:13;;;;;;;39.70;23.30;;;;;;;7.89;100.00;100651.54;218923;1288;138792;-88
2023/04/07 16:43:13;;;;;;;42.70;24.80;;;;;;;7.88;100.00;100651.30;218342;1287;140978;-87
2023/04/07 16:48:14;;;;;;;44.50;24.90;;;;;;;7.88;100.00;100655.35;218782;1286;139137;-88
2023/04/07 16:53:14;;;;;;;69.30;34.60;;;;;;;7.88;100.00;100658.02;218493;1289;139016;-88
2023/04/07 16:58:18;;;;;;;95.40;51.30;;;;;;;7.91;100.00;100660.36;218832;1287;138994;-88
2023/04/07 17:03:18;;;;;;;75.80;47.60;;;;;;;7.92;100.00;100663.58;218215;1286;140083;-88
2023/04/07 17:08:19;;;;;;;78.90;46.20;;;;;;;7.92;100.00;100672.04;218820;1288;140026;-88
2023/04/07 17:13:20;;;;;;;53.10;29.70;;;;;;;7.91;100.00;100671.80;218411;1286;139335;-89
2023/04/07 17:18:20;;;;;;;52.90;26.90;;;;;;;7.90;100.00;100676.80;218912;1286;139204;-89
2023/04/07 17:23:21;;;;;;;45.80;25.10;;;;;;;7.89;100.00;100687.80;218488;1287;139840;-89
2023/04/07 17:28:21;;;;;;;35.10;20.40;;;;;;;7.88;100.00;100691.66;218874;1286;138794;-89
2023/04/07 17:33:22;;;;;;;30.40;17.80;;;;;;;7.87;100.00;100694.64;218303;1288;138770;-89
2023/04/07 17:38:22;;;;;;;32.60;19.60;;;;;;;7.86;100.00;100703.92;218857;1286;139151;-88
2023/04/07 17:43:23;;;;;;;34.00;19.20;;;;;;;7.84;100.00;100706.53;218312;1288;139294;-89
2023/04/07 17:48:23;;;;;;;37.00;21.30;;;;;;;7.82;100.00;100708.42;218872;1288;138882;-86
2023/04/07 17:53:25;;;;;;;35.30;20.70;;;;;;;7.82;100.00;100706.01;218235;1289;139135;-87
2023/04/07 17:58:26;;;;;;;33.90;19.60;;;;;;;7.84;100.00;100706.05;218972;1289;95994;-87
2023/04/07 18:03:27;;;;;;;39.50;21.90;;;;;;;7.85;100.00;100717.12;218419;1288;140415;-88
2023/04/07 18:08:29;;;;;;;35.70;21.40;;;;;;;7.85;100.00;100719.70;218885;1288;138657;-87
2023/04/07 18:13:30;;;;;;;37.30;20.80;;;;;;;7.84;100.00;100721.39;218296;1286;139060;-88
2023/04/07 18:18:30;;;;;;;38.90;21.50;;;;;;;7.84;100.00;100725.48;218872;1289;138784;-88
2023/04/07 18:23:31;;;;;;;34.20;21.30;;;;;;;7.84;100.00;100731.36;218325;1289;138800;-88
2023/04/07 18:28:32;;;;;;;43.20;22.90;;;;;;;7.85;100.00;100733.33;218897;1286;95158;-88
2023/04/07 18:33:33;;;;;;;40.80;23.40;;;;;;;7.86;100.00;100742.20;218316;1288;138970;-88
2023/04/07 18:38:34;;;;;;;43.30;24.50;;;;;;;7.87;100.00;100742.55;218840;1290;138772;-88
2023/04/07 18:43:34;;;;;;;47.60;26.70;;;;;;;7.87;100.00;100741.29;218312;1286;138678;-88
2023/04/07 18:48:35;;;;;;;49.50;28.00;;;;;;;7.86;100.00;100744.02;218702;1288;139987;-90
2023/04/07 18:53:35;;;;;;;45.30;26.20;;;;;;;7.88;100.00;100746.63;218125;1288;138940;-88
2023/04/07 18:58:42;;;;;;;51.20;29.30;;;;;;;7.89;100.00;100751.83;218854;1286;94835;-88
2023/04/07 19:03:43;;;;;;;63.90;33.40;;;;;;;7.90;100.00;100752.72;218116;1288;138916;-90
2023/04/07 19:08:43;;;;;;;67.10;35.90;;;;;;;7.89;100.00;100752.25;218827;1287;139899;-89
2023/04/07 19:13:44;;;;;;;57.00;32.10;;;;;;;7.91;100.00;100756.73;218308;1289;138663;-89
2023/04/07 19:18:44;;;;;;;50.90;29.30;;;;;;;7.92;100.00;100760.69;218851;1286;138930;-89
2023/04/07 19:23:46;;;;;;;50.70;28.00;;;;;;;7.93;100.00;100765.48;218299;1289;138885;-89
2023/04/07 19:28:47;;;;;;;54.70;32.00;;;;;;;7.94;100.00;100776.55;218393;1288;139785;-87
2023/04/07 19:33:48;;;;;;;52.00;30.80;;;;;;;7.96;100.00;100800.19;218776;1291;138620;-90
2023/04/07 19:38:48;;;;;;;52.80;31.00;;;;;;;7.97;100.00;100795.19;218148;1287;139569;-87
2023/04/07 19:43:49;;;;;;;55.00;31.60;;;;;;;7.98;100.00;100798.05;218846;1289;138807;-89
2023/04/07 19:48:50;;;;;;;50.20;30.40;;;;;;;8.04;100.00;100802.83;218292;1287;139028;-89
2023/04/07 19:53:50;;;;;;;50.40;31.10;;;;;;;8.11;100.00;100805.36;218985;1286;139005;-87
2023/04/07 19:58:50;;;;;;;61.30;37.00;;;;;;;8.14;100.00;100806.16;218354;1287;139474;-87
2023/04/07 20:03:51;;;;;;;67.80;37.30;;;;;;;8.16;100.00;100804.79;218698;1288;138792;-88
2023/04/07 20:08:51;;;;;;;58.50;34.30;;;;;;;8.18;100.00;100811.66;218258;1288;139326;-87
2023/04/07 20:13:52;;;;;;;55.00;32.70;;;;;;;8.20;100.00;100810.27;218827;1287;138849;-88
2023/04/07 20:18:52;;;;;;;66.10;36.30;;;;;;;8.23;100.00;100808.22;218240;1290;140457;-88
2023/04/07 20:23:53;;;;;;;60.00;33.40;;;;;;;8.24;100.00;100809.73;218752;1289;138906;-87
2023/04/07 20:28:53;;;;;;;62.10;33.80;;;;;;;8.25;100.00;100819.15;218268;1286;138826;-87
2023/04/07 20:33:54;;;;;;;67.10;35.80;;;;;;;8.26;100.00;100822.80;218805;1287;138783;-89
2023/04/07 20:38:54;;;;;;;59.70;33.00;;;;;;;8.27;100.00;100828.15;218322;1289;139962;-90
2023/04/07 20:43:55;;;;;;;84.30;40.20;;;;;;;8.26;100.00;100832.05;218802;1287;138984;-88
2023/04/07 20:48:56;;;;;;;63.10;35.40;;;;;;;8.28;100.00;100830.45;218364;1291;139241;-88
2023/04/07 20:53:56;;;;;;;63.50;33.50;;;;;;;8.31;100.00;100832.56;218674;1291;139966;-89
2023/04/07 20:58:57;;;;;;;68.50;39.20;;;;;;;8.33;100.00;100834.73;218297;1288;139601;-89
2023/04/07 21:03:59;;;;;;;69.00;39.80;;;;;;;8.36;100.00;100833.64;218741;1286;139393;-89
2023/04/07 21:09:01;;;;;;;65.10;36.30;;;;;;;8.37;100.00;100828.65;218349;1286;139251;-89
2023/04/07 21:14:01;;;;;;;69.70;36.50;;;;;;;8.38;100.00;100832.89;218716;1287;140313;-88
2023/04/07 21:19:02;;;;;;;57.00;33.50;;;;;;;8.40;100.00;100832.81;218294;1286;139064;-89
2023/04/07 21:24:02;;;;;;;61.50;36.10;;;;;;;8.38;100.00;100829.99;218842;1286;138746;-90
2023/04/07 21:29:03;;;;;;;64.90;34.50;;;;;;;8.33;100.00;100837.39;218389;1286;138749;-89
2023/04/07 21:34:03;;;;;;;60.50;33.20;;;;;;;8.27;100.00;100835.14;218827;1288;138742;-90
2023/04/07 21:39:05;;;;;;;62.90;34.80;;;;;;;8.23;100.00;100833.45;218287;1288;138938;-89
2023/04/07 21:44:08;;;;;;;59.80;33.90;;;;;;;8.19;100.00;100833.53;218813;1288;138778;-88
2023/04/07 21:49:09;;;;;;;60.50;34.80;;;;;;;8.17;100.00;100834.10;218220;1288;139995;-89
2023/04/07 21:54:11;;;;;;;58.60;32.40;;;;;;;8.14;100.00;100834.42;218873;1286;139170;-89
2023/04/07 21:59:11;;;;;;;60.60;33.90;;;;;;;8.10;100.00;100838.14;218293;1289;138508;-87
2023/04/07 22:04:12;;;;;;;66.90;40.00;;;;;;;8.08;100.00;100847.80;218838;1288;138874;-87
2023/04/07 22:09:13;;;;;;;60.70;33.80;;;;;;;8.05;100.00;100845.93;218371;1288;140332;-89
2023/04/07 22:14:13;;;;;;;55.50;31.00;;;;;;;8.02;100.00;100855.80;218740;1286;138916;-87
2023/04/07 22:19:13;;;;;;;53.50;29.90;;;;;;;7.97;100.00;100848.14;218308;1287;139683;-91
2023/04/07 22:24:14;;;;;;;51.20;29.10;;;;;;;7.93;100.00;100852.41;218838;1288;139701;-89
2023/04/07 22:29:15;;;;;;;53.80;29.70;;;;;;;7.87;100.00;100862.48;218460;1286;139230;-90
2023/04/07 22:34:15;;;;;;;49.50;27.50;;;;;;;7.81;100.00;100868.27;218948;1286;138627;-89